Terminal Aerodrome Forecast
Issued by NWS Grand Forks, ND

Home | Current Version | Previous Version | Graphics & Text | Print | Product List | Glossary On
Versions: 1 2 3 4 5 6 7 8 9 10 11 12 13 14 15 16 17 18
000
FTUS43 KFGF 301600 AAA
TAFGFK
TAF AMD
KGFK 301618Z 3016/3112 35018G24KT P6SM OVC014
     FM301900 35020G26KT P6SM BKN025
     FM302200 35010G15KT P6SM SCT035
     FM310100 35007KT P6SM SKC=

USA.gov is the U.S. government's official web portal to all federal, state and local government web resources and services.